Time,TemperatureF,DewpointF,PressureIn,WindDirection,WindDirectionDegrees,WindSpeedMPH,WindSpeedGustMPH,Humidity,HourlyPrecipIn,Conditions,Clouds,dailyrainin,SoftwareType,DateUTC
2013-08-15 00:10:00,54.3,48.6,30.05,NE,45,3.2,-999.0,81,-99.99,,,0.00,Acu-Link.com,2013-08-15 04:10:00,
2013-08-15 00:26:00,54.1,48.7,30.05,NE,45,0.0,-999.0,82,-99.99,,,0.00,Acu-Link.com,2013-08-15 04:26:00,
2013-08-15 00:41:00,53.4,48.7,30.05,ENE,67,2.2,-999.0,84,-99.99,,,0.00,Acu-Link.com,2013-08-15 04:41:00,
2013-08-15 00:56:00,52.7,48.0,30.05,East,90,1.7,-999.0,84,-99.99,,,0.00,Acu-Link.com,2013-08-15 04:56:00,
2013-08-15 01:12:00,52.0,47.9,30.04,East,90,1.7,-999.0,86,-99.99,,,0.00,Acu-Link.com,2013-08-15 05:12:00,
2013-08-15 01:27:00,51.3,48.2,30.04,ESE,112,1.7,-999.0,89,-99.99,,,0.00,Acu-Link.com,2013-08-15 05:27:00,
2013-08-15 01:42:00,50.2,47.1,30.05,ENE,67,0.0,-999.0,89,-99.99,,,0.00,Acu-Link.com,2013-08-15 05:42:00,
2013-08-15 01:57:00,49.1,47.4,30.05,ENE,67,0.0,-999.0,94,-99.99,,,0.00,Acu-Link.com,2013-08-15 05:57:00,
2013-08-15 02:12:00,49.3,47.6,30.04,East,90,1.1,-999.0,94,-99.99,,,0.00,Acu-Link.com,2013-08-15 06:12:00,
2013-08-15 02:28:00,49.6,47.1,30.04,East,90,2.2,-999.0,91,-99.99,,,0.00,Acu-Link.com,2013-08-15 06:28:00,
2013-08-15 02:43:00,50.2,46.8,30.03,NE,45,3.2,-999.0,88,-99.99,,,0.00,Acu-Link.com,2013-08-15 06:43:00,
2013-08-15 02:58:00,49.6,46.8,30.04,NW,315,1.7,-999.0,90,-99.99,,,0.00,Acu-Link.com,2013-08-15 06:58:00,
2013-08-15 03:14:00,49.3,46.8,30.04,East,90,0.0,-999.0,91,-99.99,,,0.00,Acu-Link.com,2013-08-15 07:14:00,
2013-08-15 03:29:00,48.9,46.4,30.04,East,90,1.7,-999.0,91,-99.99,,,0.00,Acu-Link.com,2013-08-15 07:29:00,
2013-08-15 03:44:00,49.1,46.0,30.03,ENE,67,0.0,-999.0,89,-99.99,,,0.00,Acu-Link.com,2013-08-15 07:44:00,
2013-08-15 04:00:00,48.7,46.2,30.03,East,90,1.7,-999.0,91,-99.99,,,0.00,Acu-Link.com,2013-08-15 08:00:00,
2013-08-15 04:16:00,48.7,46.2,30.03,East,90,0.0,-999.0,91,-99.99,,,0.00,Acu-Link.com,2013-08-15 08:16:00,
2013-08-15 04:31:00,48.4,46.2,30.03,East,90,0.0,-999.0,92,-99.99,,,0.00,Acu-Link.com,2013-08-15 08:31:00,
2013-08-15 04:46:00,47.7,45.8,30.03,East,90,0.0,-999.0,93,-99.99,,,0.00,Acu-Link.com,2013-08-15 08:46:00,
2013-08-15 05:01:00,47.3,45.7,30.04,East,90,0.0,-999.0,94,-99.99,,,0.00,Acu-Link.com,2013-08-15 09:01:00,
2013-08-15 05:16:00,46.6,45.8,30.05,East,90,0.0,-999.0,97,-99.99,,,0.00,Acu-Link.com,2013-08-15 09:16:00,
2013-08-15 05:31:00,46.6,46.1,30.04,East,90,0.0,-999.0,98,-99.99,,,0.00,Acu-Link.com,2013-08-15 09:31:00,
2013-08-15 05:46:00,46.6,46.1,30.05,East,90,0.0,-999.0,98,-99.99,,,0.00,Acu-Link.com,2013-08-15 09:46:00,
2013-08-15 06:02:00,46.4,46.1,30.05,East,90,0.0,-999.0,99,-99.99,,,0.00,Acu-Link.com,2013-08-15 10:02:00,
2013-08-15 06:17:00,46.6,46.3,30.06,East,90,0.0,-999.0,99,-99.99,,,0.00,Acu-Link.com,2013-08-15 10:17:00,
2013-08-15 06:32:00,46.6,46.3,30.07,East,90,0.0,-999.0,99,-99.99,,,0.00,Acu-Link.com,2013-08-15 10:32:00,
2013-08-15 06:48:00,46.8,46.5,30.07,East,90,0.0,-999.0,99,-99.99,,,0.00,Acu-Link.com,2013-08-15 10:48:00,
2013-08-15 07:03:00,47.7,47.4,30.08,East,90,0.0,-999.0,99,-99.99,,,0.00,Acu-Link.com,2013-08-15 11:03:00,
2013-08-15 07:18:00,48.2,47.9,30.07,East,90,0.0,-999.0,99,-99.99,,,0.00,Acu-Link.com,2013-08-15 11:18:00,
2013-08-15 07:33:00,49.6,49.3,30.08,South,180,0.0,-999.0,99,-99.99,,,0.00,Acu-Link.com,2013-08-15 11:33:00,
2013-08-15 07:48:00,51.3,51.0,30.08,ESE,112,0.0,-999.0,99,-99.99,,,0.00,Acu-Link.com,2013-08-15 11:48:00,
2013-08-15 08:04:00,54.3,52.0,30.08,ESE,112,0.0,-999.0,92,-99.99,,,0.00,Acu-Link.com,2013-08-15 12:04:00,
2013-08-15 08:19:00,58.3,50.8,30.09,NNW,337,1.1,-999.0,76,-99.99,,,0.00,Acu-Link.com,2013-08-15 12:19:00,
2013-08-15 08:34:00,63.3,52.2,30.09,NNW,337,2.7,-999.0,67,-99.99,,,0.00,Acu-Link.com,2013-08-15 12:34:00,
2013-08-15 08:50:00,63.5,53.1,30.09,NW,315,1.7,-999.0,69,-99.99,,,0.00,Acu-Link.com,2013-08-15 12:50:00,
2013-08-15 09:05:00,66.2,53.7,30.09,SE,135,3.2,-999.0,64,-99.99,,,0.00,Acu-Link.com,2013-08-15 13:05:00,
2013-08-15 09:20:00,65.5,52.1,30.09,East,90,3.2,-999.0,62,-99.99,,,0.00,Acu-Link.com,2013-08-15 13:20:00,
2013-08-15 09:36:00,61.7,52.2,30.09,East,90,5.3,-999.0,71,-99.99,,,0.00,Acu-Link.com,2013-08-15 13:36:00,
2013-08-15 09:51:00,61.2,51.3,30.09,NNE,22,4.7,-999.0,70,-99.99,,,0.00,Acu-Link.com,2013-08-15 13:51:00,
2013-08-15 10:06:00,60.6,53.0,30.08,North,0,2.7,-999.0,76,-99.99,,,0.00,Acu-Link.com,2013-08-15 14:06:00,
2013-08-15 10:21:00,61.2,52.8,30.08,SE,135,2.2,-999.0,74,-99.99,,,0.00,Acu-Link.com,2013-08-15 14:21:00,
2013-08-15 10:36:00,63.3,54.5,30.09,SE,135,2.7,-999.0,73,-99.99,,,0.00,Acu-Link.com,2013-08-15 14:36:00,
2013-08-15 11:07:00,60.8,52.8,30.08,ENE,67,3.2,-999.0,75,-99.99,,,0.00,Acu-Link.com,2013-08-15 15:07:00,
2013-08-15 11:22:00,61.3,52.9,30.08,South,180,4.7,-999.0,74,-99.99,,,0.00,Acu-Link.com,2013-08-15 15:22:00,
2013-08-15 11:37:00,62.8,53.6,30.06,ESE,112,2.7,-999.0,72,-99.99,,,0.00,Acu-Link.com,2013-08-15 15:37:00,
2013-08-15 11:53:00,60.6,53.3,30.06,East,90,2.7,-999.0,77,-99.99,,,0.00,Acu-Link.com,2013-08-15 15:53:00,
2013-08-15 12:08:00,60.6,53.7,30.06,North,0,0.0,-999.0,78,-99.99,,,0.00,Acu-Link.com,2013-08-15 16:08:00,
2013-08-15 12:39:00,62.4,54.0,30.03,SW,225,2.2,-999.0,74,-99.99,,,0.00,Acu-Link.com,2013-08-15 16:39:00,
2013-08-15 12:54:00,65.5,56.2,30.03,WSW,247,3.7,-999.0,72,-99.99,,,0.00,Acu-Link.com,2013-08-15 16:54:00,
2013-08-15 13:09:00,64.6,55.4,30.00,ENE,67,4.2,-999.0,72,-99.99,,,0.00,Acu-Link.com,2013-08-15 17:09:00,
2013-08-15 13:40:00,64.6,55.4,30.02,ESE,112,6.8,-999.0,72,-99.99,,,0.00,Acu-Link.com,2013-08-15 17:40:00,
2013-08-15 14:10:00,64.8,54.4,30.00,NE,45,2.7,-999.0,69,-99.99,,,0.00,Acu-Link.com,2013-08-15 18:10:00,
2013-08-15 14:40:00,64.4,54.4,30.02,SSE,157,2.2,-999.0,70,-99.99,,,0.00,Acu-Link.com,2013-08-15 18:40:00,
2013-08-15 15:11:00,68.0,55.8,30.01,WSW,247,3.7,-999.0,65,-99.99,,,0.00,Acu-Link.com,2013-08-15 19:11:00,
2013-08-15 15:42:00,65.1,55.1,30.00,NNE,22,5.8,-999.0,70,-99.99,,,0.00,Acu-Link.com,2013-08-15 19:42:00,
2013-08-15 15:57:00,65.7,55.2,30.00,East,90,1.7,-999.0,69,-99.99,,,0.00,Acu-Link.com,2013-08-15 19:57:00,
2013-08-15 16:12:00,66.6,55.3,29.99,West,270,2.7,-999.0,67,-99.99,,,0.00,Acu-Link.com,2013-08-15 20:12:00,
2013-08-15 16:28:00,65.5,54.7,29.99,ESE,112,4.2,-999.0,68,-99.99,,,0.00,Acu-Link.com,2013-08-15 20:28:00,
2013-08-15 16:43:00,67.3,55.5,29.99,East,90,4.7,-999.0,66,-99.99,,,0.00,Acu-Link.com,2013-08-15 20:43:00,
2013-08-15 16:58:00,68.4,54.9,29.99,South,180,1.7,-999.0,62,-99.99,,,0.00,Acu-Link.com,2013-08-15 20:58:00,
2013-08-15 17:13:00,69.4,56.2,29.99,SSE,157,2.7,-999.0,63,-99.99,,,0.00,Acu-Link.com,2013-08-15 21:13:00,
2013-08-15 17:44:00,67.3,56.0,29.99,SSW,202,5.3,-999.0,67,-99.99,,,0.00,Acu-Link.com,2013-08-15 21:44:00,
2013-08-15 17:59:00,66.2,54.1,30.00,SE,135,2.2,-999.0,65,-99.99,,,0.00,Acu-Link.com,2013-08-15 21:59:00,
2013-08-15 18:14:00,67.5,55.3,30.00,East,90,2.7,-999.0,65,-99.99,,,0.00,Acu-Link.com,2013-08-15 22:14:00,
2013-08-15 18:30:00,68.9,55.8,30.00,WNW,292,1.1,-999.0,63,-99.99,,,0.00,Acu-Link.com,2013-08-15 22:30:00,
2013-08-15 18:45:00,68.2,54.2,30.01,East,90,4.7,-999.0,61,-99.99,,,0.00,Acu-Link.com,2013-08-15 22:45:00,
2013-08-15 19:00:00,64.8,54.0,30.01,SSE,157,1.1,-999.0,68,-99.99,,,0.00,Acu-Link.com,2013-08-15 23:00:00,
2013-08-15 19:16:00,63.1,53.5,30.01,ESE,112,3.7,-999.0,71,-99.99,,,0.00,Acu-Link.com,2013-08-15 23:16:00,
2013-08-15 19:46:00,60.6,53.0,30.03,South,180,3.7,-999.0,76,-99.99,,,0.00,Acu-Link.com,2013-08-15 23:46:00,
2013-08-15 20:01:00,59.7,53.2,30.03,South,180,1.7,-999.0,79,-99.99,,,0.00,Acu-Link.com,2013-08-16 00:01:00,
2013-08-15 20:16:00,58.3,53.2,30.04,West,270,0.0,-999.0,83,-99.99,,,0.00,Acu-Link.com,2013-08-16 00:16:00,
2013-08-15 20:32:00,56.7,52.9,30.04,West,270,0.0,-999.0,87,-99.99,,,0.00,Acu-Link.com,2013-08-16 00:32:00,
2013-08-15 20:47:00,54.9,51.7,30.05,WSW,247,0.0,-999.0,89,-99.99,,,0.00,Acu-Link.com,2013-08-16 00:47:00,
2013-08-15 21:02:00,53.8,51.5,30.06,South,180,0.0,-999.0,92,-99.99,,,0.00,Acu-Link.com,2013-08-16 01:02:00,
2013-08-15 21:18:00,52.7,51.3,30.06,South,180,0.0,-999.0,95,-99.99,,,0.00,Acu-Link.com,2013-08-16 01:18:00,
2013-08-15 21:33:00,52.0,51.5,30.07,SSE,157,1.7,-999.0,98,-99.99,,,0.00,Acu-Link.com,2013-08-16 01:33:00,
2013-08-15 21:48:00,51.4,51.1,30.07,SE,135,0.0,-999.0,99,-99.99,,,0.00,Acu-Link.com,2013-08-16 01:48:00,
2013-08-15 22:04:00,51.3,51.0,30.08,ESE,112,0.0,-999.0,99,-99.99,,,0.00,Acu-Link.com,2013-08-16 02:04:00,
2013-08-15 22:19:00,50.9,50.6,30.08,SE,135,0.0,-999.0,99,-99.99,,,0.00,Acu-Link.com,2013-08-16 02:19:00,
2013-08-15 22:34:00,50.5,50.2,30.08,SE,135,0.0,-999.0,99,-99.99,,,0.00,Acu-Link.com,2013-08-16 02:34:00,
2013-08-15 22:49:00,50.2,49.9,30.08,SE,135,0.0,-999.0,99,-99.99,,,0.00,Acu-Link.com,2013-08-16 02:49:00,
2013-08-15 23:04:00,50.0,49.7,30.07,SE,135,0.0,-999.0,99,-99.99,,,0.00,Acu-Link.com,2013-08-16 03:04:00,
2013-08-15 23:20:00,49.6,49.3,30.07,SE,135,0.0,-999.0,99,-99.99,,,0.00,Acu-Link.com,2013-08-16 03:20:00,
2013-08-15 23:35:00,49.5,49.2,30.07,SE,135,0.0,-999.0,99,-99.99,,,0.00,Acu-Link.com,2013-08-16 03:35:00,
2013-08-15 23:50:00,49.5,49.2,30.07,SE,135,0.0,-999.0,99,-99.99,,,0.00,Acu-Link.com,2013-08-16 03:50:00,